Aeroporto :
LOGIN :

Iscrizione | Disclaimer

   EN    FR    IT 

 










Sommario :    VFR   VFR Marginale   IFR   IFR Intensivo   IFR Molto Intensivo
Visibilità : 
Base nubi : 
>= 8 km
>= 3000ft
5 / 8 km
1000 / 3000 ft
1500m / 5 km
500 / 1000 ft
800 / 1500m
200 / 500 ft
< 800m
< 200 ft
Simboli :   Temporali  Nebbia  Neve Forte  Precipitazioni Forti  Vento > 20 kt
SIGMETs :   Varie  Temporali  Ghiacco  Turbolenza  Onda orograficha  Ceneri Vulcaniche






- Altitudine del aeroporto : 416 ft
- Codice IATA : OVD


LEAS - Asturias

ULTIMO METAR :
  • 231900Z 32005KT 280V350 9999 FEW012 14/11 Q1021 NOSIG

METARs OBSOLETI :
  • 231830Z 32006KT 280V010 9999 SCT014 14/11 Q1021 NOSIG
  • 231800Z 32005KT 270V010 9999 SCT014 14/11 Q1021 NOSIG
  • 231730Z 30008KT 280V360 9999 SCT014 15/11 Q1021 NOSIG
  • 231700Z 31007KT 270V350 9999 SCT014 15/12 Q1021 NOSIG
  • 231630Z 32008KT 280V020 9999 SCT015 15/11 Q1021 NOSIG
  • 231600Z 32008KT 280V010 9999 SCT014 15/11 Q1021 NOSIG
  • 231530Z 32009KT 290V010 9999 SCT014 15/12 Q1021 NOSIG
  • 231500Z 32010KT 280V360 9999 FEW011 15/12 Q1021 NOSIG
  • 231430Z 32008KT 280V010 9999 FEW014 15/12 Q1021 NOSIG

TAF AMD TAF LEAS
Valido dal 23 a 15 ore il 24 a 15 ore UTC


231453Z 2315/2415 31009KT 9999 FEW025 SCT050 TX18/2412Z TN10/2401Z
PROB30
TEMPO 2400/2406 23010KT
PROB30
TEMPO 2316/2322 BKN010
BECMG 2407/2410 06010KT



MetMap, La meteo Aeronautica in un colpo d'occhio ! - Copyright ORBIFLY Dicembre 2007 - Disclaimer

ORBIFLY MET'MAP TEAM :

Programmazione e sviluppo : Alexandra Zaïnal
Concezione : Baudouin d'Aumeries
Supporto tecnico e logistico : Manuel Goepfert
Aiuto : Marc-Olivier Méhu
Aiuto per la traduzione : Arnaldo La Scala




FONTI E CREDITI :

   NOAA